ADDS METAR Data INFO
IDs: Format: Raw Decoded Include TAF

Data at: 2158 UTC 24 Feb 2018

PAUT 242155Z AUTO 25015G20KT 10SM BKN050 BKN060 04/M03 A3042 RMK AO2 T00411034
PAUT 242135Z AUTO 25009G22KT 10SM BKN047 OVC055 04/M03 A3043 RMK AO2 T00401035
PAUT 242115Z AUTO 25012G17KT 10SM OVC047 04/M03 A3043 RMK AO2 T00371031
PAUT 242055Z AUTO 25015G22KT 10SM BKN047 OVC055 03/M03 A3043 RMK AO2 T00321031
PAUT 242035Z AUTO 25015G21KT 10SM BKN048 OVC060 03/M03 A3042 RMK AO2 T00321033
PAUT 242015Z AUTO 26017G22KT 10SM BKN048 OVC050 03/M03 A3041 RMK AO2 T00331033
PAUT 241955Z AUTO 27012KT 10SM SCT041 BKN048 OVC060 03/M03 A3041 RMK AO2 T00321028
PAUT 241935Z AUTO 27015G24KT 10SM SCT042 BKN048 OVC055 03/M03 A3040 RMK AO2 T00321032
PAUT 241915Z AUTO 27015G27KT 10SM SCT038 OVC048 03/M03 A3040 RMK AO2 T00311029
PAUT 241855Z AUTO 27017G24KT 10SM SCT037 OVC048 03/M03 A3039 RMK AO2 T00301029
PAUT 241835Z AUTO 27019G25KT 10SM SCT033 BKN040 OVC046 03/M03 A3039 RMK AO2 T00301030
PAUT 241815Z AUTO 27022G27KT 10SM BKN043 BKN055 03/M04 A3039 RMK AO2 T00281037
PAUT 241755Z AUTO 27021G29KT 10SM CLR 03/M05 A3039 RMK AO2 T00301050 10030 20008
PAUT 241735Z AUTO 27019G28KT 10SM CLR 03/M05 A3038 RMK AO2 T00281054
PAUT 241715Z AUTO 25012G20KT 10SM CLR 02/M05 A3038 RMK AO2 T00211051
PAUT 241655Z AUTO 25008KT 10SM SCT050 SCT090 02/M05 A3038 RMK AO2 T00171050
PAUT 241635Z AUTO 23012G17KT 10SM SCT050 SCT060 BKN090 02/M05 A3037 RMK AO2 T00191047
PAUT 241615Z AUTO 22014G18KT 10SM SCT060 BKN065 OVC090 02/M04 A3038 RMK AO2 T00211037
PAUT 241555Z AUTO 23014G21KT 10SM SCT060 OVC090 02/M06 A3038 RMK AO2 T00241058
PAUT 241535Z AUTO 21012G20KT 10SM SCT050 SCT065 OVC090 02/M06 A3038 RMK AO2 T00211060
PAUT 241515Z AUTO 24014KT 10SM SCT050 SCT065 BKN090 02/M06 A3039 RMK AO2 T00211059
PAUT 241455Z AUTO 25021G30KT 10SM BKN050 BKN060 02/M05 A3039 RMK AO2 T00221055
PAUT 241435Z AUTO 25019G30KT 10SM SCT038 BKN046 OVC060 02/M05 A3039 RMK AO2 T00221047
PAUT 241415Z AUTO 10SM SCT045 OVC050 02/M04 A3038 RMK AO2 T00221043
PAUT 241355Z AUTO 26017KT 10SM OVC049 02/M04 A3038 RMK AO2 T00221044
PAUT 241335Z AUTO 28016G24KT 10SM BKN047 OVC055 02/M05 A3038 RMK AO2 T00221047
PAUT 241315Z AUTO 26015G28KT 10SM SCT040 SCT046 BKN055 02/M04 A3037 RMK AO2 T00231045
PAUT 241255Z AUTO 26017G26KT 10SM SCT039 BKN046 BKN050 02/M03 A3037 RMK AO2 T00181035
PAUT 241235Z AUTO 26018G24KT 10SM SCT021 SCT039 BKN047 01/M04 A3037 RMK AO2 T00131037
PAUT 241215Z AUTO 26018G36KT 7SM -RA SCT018 BKN046 OVC070 01/M03 A3038 RMK AO2 T00101032
PAUT 241155Z AUTO 26015G25KT 10SM SCT024 SCT034 OVC044 01/M03 A3037 RMK AO2 70024 T00141027 10017 20003
PAUT 241135Z AUTO 26011KT 7SM -SN SCT011 BKN028 OVC035 00/M02 A3037 RMK AO2 T00041016
PAUT 241115Z AUTO 26018G23KT 7SM -SN SCT008 BKN028 OVC045 01/M02 A3037 RMK AO2 T00101024
PAUT 241055Z AUTO 27018G22KT 4SM -SN SCT010 BKN017 OVC036 00/M02 A3037 RMK AO2 T00031020
PAUT 241035Z AUTO 27025G34KT 5SM -RA SCT016 BKN033 OVC046 01/M03 A3036 RMK AO2 T00131027
PAUT 241015Z AUTO 26024G29KT 10SM SCT013 BKN041 OVC095 01/M03 A3034 RMK AO2 T00141030
PAUT 240955Z AUTO 25020G36KT 4SM -SN SCT005 BKN036 OVC095 01/M03 A3033 RMK AO2 T00081027
PAUT 240935Z AUTO 27016G25KT 7SM -RA SCT013 BKN034 OVC041 02/M02 A3032 RMK AO2 T00161021
PAUT 240915Z AUTO 26014KT 4SM -RA SCT014 BKN030 BKN045 01/M03 A3030 RMK AO2 T00111026
PAUT 240855Z AUTO 27026G30KT 10SM UP SCT015 BKN034 OVC110 01/M03 A3029 RMK AO2 T00101028 400530002
PAUT 240835Z AUTO 27026G37KT 7SM UP SCT021 BKN037 OVC090 02/M04 A3030 RMK AO2 T00161037
PAUT 240815Z AUTO 26021G30KT 10SM SCT031 BKN037 OVC045 02/M04 A3028 RMK AO2 T00151039
PAUT 240755Z AUTO 27021G30KT 7SM -RA SCT018 BKN034 OVC045 01/M03 A3026 RMK AO2 T00111029
PAUT 240735Z AUTO 27021G29KT 10SM UP SCT012 BKN028 OVC043 01/M03 A3026 RMK AO2 T00131030
PAUT 240715Z AUTO 27023G30KT 4SM -SN SCT015 BKN034 OVC046 01/M03 A3025 RMK AO2 T00121030
PAUT 240655Z AUTO 26024G32KT 10SM SCT027 BKN043 OVC050 01/M03 A3024 RMK AO2 T00121035
PAUT 240635Z AUTO 27024G34KT 10SM -RA SCT026 BKN039 OVC049 01/M03 A3024 RMK AO2 T00101031
PAUT 240615Z AUTO 27018G32KT 7SM UP SCT026 BKN035 OVC046 01/M03 A3022 RMK AO2 T00111031
PAUT 240555Z AUTO 28023G27KT 5SM -RA SCT006 BKN029 OVC037 01/M01 A3022 RMK AO2 T00101013 10051 20002
PAUT 240535Z AUTO 26022G26KT 2SM -SN BKN006 BKN012 OVC034 00/M01 A3021 RMK AO2 T00031013
PAUT 240515Z AUTO 26014G26KT 10SM SCT025 BKN032 OVC045 02/M02 A3021 RMK AO2 T00171017
PAUT 240455Z AUTO 26015G18KT 5SM -SN SCT011 BKN023 OVC033 01/M01 A3021 RMK AO2 T00071013
PAUT 240435Z AUTO 28021KT 7SM -RA SCT024 BKN037 OVC046 02/M02 A3019 RMK AO2 T00211016
PAUT 240415Z AUTO 25010G17KT 10SM SCT037 BKN043 OVC050 03/M03 A3017 RMK AO2 T00301026
PAUT 240355Z AUTO 26014G20KT 10SM SCT037 SCT043 BKN049 03/M02 A3017 RMK AO2 T00271022
PAUT 240335Z AUTO 25015G18KT 10SM SCT014 SCT035 BKN045 02/M01 A3017 RMK AO2 T00221014
PAUT 240315Z AUTO 26016G23KT 4SM -SN SCT013 BKN036 OVC049 02/M01 A3016 RMK AO2 T00241013
PAUT 240255Z AUTO 28017G25KT 10SM -RA SCT034 BKN041 BKN050 03/M02 A3014 RMK AO2 T00341022
PAUT 240235Z AUTO 26018G22KT 10SM CLR 04/M04 A3015 RMK AO2 T00381037
PAUT 240215Z AUTO 27017G28KT 10SM SCT025 SCT043 BKN065 03/M02 A3016 RMK AO2 T00291018
PAUT 240155Z AUTO 26023G30KT 10SM SCT042 SCT050 BKN065 04/M03 A3015 RMK AO2 T00371030
PAUT 240135Z AUTO 26025G31KT 10SM SCT044 OVC050 04/M03 A3013 RMK AO2 T00421029
PAUT 240115Z AUTO 28018G23KT 10SM BKN050 05/M03 A3012 RMK AO2 T00501031
PAUT 240055Z AUTO 28016G22KT 10SM SCT050 SCT060 05/M03 A3011 RMK AO2 T00481035
PAUT 240035Z AUTO 27015G28KT 10SM SCT046 OVC060 05/M02 A3011 RMK AO2 T00481019
PAUT 240015Z AUTO 28020G29KT 10SM SCT043 OVC050 04/M03 A3010 RMK AO2 T00431027
PAUT 232355Z AUTO 27022G29KT 10SM SCT035 OVC043 04/M02 A3010 RMK AO2 60004 T00431019 10053 20040
PAUT 232335Z AUTO 27020G30KT 10SM SCT026 BKN035 OVC043 04/00 A3009 RMK AO2 T00431002
PAUT 232315Z AUTO 27016G28KT 10SM BKN028 OVC034 04/00 A3008 RMK AO2 T00400001
PAUT 232255Z AUTO 28017G24KT 10SM BKN033 BKN040 OVC047 05/00 A3007 RMK AO2 T00460000
PAUT 232235Z AUTO 28018G25KT 10SM SCT040 BKN048 05/00 A3007 RMK AO2 T00461001
PAUT 232215Z AUTO 28019KT 10SM SCT030 BKN038 BKN048 05/00 A3007 RMK AO2 T00450003
PAUT 232155Z AUTO 27022G33KT 10SM BKN030 OVC041 05/01 A3007 RMK AO2 T00460011
PAUT 232135Z AUTO 27015KT 10SM BKN030 OVC047 05/01 A3006 RMK AO2 T00450011
PAUT 232115Z AUTO 28021G26KT 10SM SCT028 BKN055 OVC070 05/02 A3005 RMK AO2 T00460017
PAUT 232055Z AUTO 28021G32KT 10SM BKN027 BKN042 OVC055 05/02 A3003 RMK AO2 60004 T00450021
PAUT 232035Z AUTO 28019G23KT 10SM OVC027 05/03 A3002 RMK AO2 T00480033
PAUT 232015Z AUTO 29017G20KT 10SM SCT007 SCT015 OVC029 05/04 A3000 RMK AO2 T00460039
PAUT 231955Z AUTO 28007KT 3SM +DZ SCT007 BKN015 OVC023 05/05 A3000 RMK AO2 P0001 T00530050
PAUT 231935Z AUTO 21011KT 10SM SCT006 BKN023 OVC028 05/05 A2998 RMK AO2 T00500046
PAUT 231915Z AUTO 21014G19KT 10SM OVC006 05/05 A2997 RMK AO2 T00500047
PAUT 231855Z AUTO 21021G30KT 10SM OVC004 05/05 A2996 RMK AO2 P0003 T00500047
PAUT 231835Z AUTO 19020G31KT 7SM -DZ OVC004 05/05 A2995 RMK AO2 P0003 T00500047
PAUT 231815Z AUTO 18027G32KT 4SM -RA OVC004 05/05 A2994 RMK AO2 P0002 T00500048
PAUT 231755Z AUTO 18026G35KT 4SM -RA OVC004 05/05 A2993 RMK AO2 P0006 60020 T00500049 10051 20040
PAUT 231735Z AUTO 18027G34KT 5SM -RA OVC004 05/05 A2993 RMK AO2 P0004 T00510050
PAUT 231715Z AUTO 17027G34KT 5SM -RA OVC004 05/05 A2995 RMK AO2 P0003 T00510050
PAUT 231655Z AUTO 17027G34KT 5SM -RA OVC004 05/05 A2997 RMK AO2 P0002 T00500049
PAUT 231635Z AUTO 17029G34KT 5SM -RA OVC004 05/05 A2998 RMK AO2 P0001 T00480046
PAUT 231615Z AUTO 17026G34KT 7SM -RA OVC004 05/05 A2999 RMK AO2 T00480046
PAUT 231555Z AUTO 17026G35KT 5SM -RA OVC004 05/04 A3000 RMK AO2 P0003 T00450043
PAUT 231535Z AUTO 17030G38KT 2 1/2SM RA OVC004 05/04 A3001 RMK AO2 P0002 T00450043
PAUT 231515Z AUTO 17031G37KT 2 1/2SM -RA OVC004 05/04 A3003 RMK AO2 T00450041
PAUT 231455Z AUTO 16025G34KT 1 3/4SM -RA OVC004 04/04 A3004 RMK AO2 P0004 60007 T00430040
PAUT 231435Z AUTO 17020G37KT 2SM -RA OVC004 05/04 A3007 RMK AO2 P0001 T00450040
PAUT 231415Z AUTO 16030G39KT 2 1/2SM BR OVC004 04/04 A3007 RMK AO2 T00430040
PAUT 231355Z AUTO 17030G40KT 4SM BR OVC004 05/04 A3010 RMK AO2 P0001 T00450040
PAUT 231335Z AUTO 16025G35KT 5SM -RA OVC004 04/04 A3011 RMK AO2 P0001 T00430038
PAUT 231315Z AUTO 15022G35KT 10SM OVC006 05/04 A3014 RMK AO2 P0001 T00450038
PAUT 231255Z AUTO 14028G37KT 7SM OVC006 04/04 A3016 RMK AO2 P0002 T00430036
PAUT 231235Z AUTO 15027G39KT 7SM -DZ OVC010 05/04 A3018 RMK AO2 P0002 T00450035
PAUT 231215Z AUTO 14026G33KT 5SM -RA OVC010 04/03 A3020 RMK AO2 P0001 T00420033
PAUT 231155Z AUTO 14024G34KT 7SM DZ OVC010 04/03 A3023 RMK AO2 P0001 60007 70007 T00400030 10040 20031
PAUT 231135Z AUTO 14023G33KT 10SM -DZ OVC012 04/03 A3025 RMK AO2 P0001 T00400028
PAUT 231115Z AUTO 14024G37KT 7SM DZ OVC012 04/03 A3028 RMK AO2 T00380026
PAUT 231055Z AUTO 14021G30KT 7SM -DZ OVC012 04/02 A3030 RMK AO2 P0003 T00350024
PAUT 231035Z AUTO 13023G28KT 7SM -DZ BKN012 OVC020 03/02 A3031 RMK AO2 P0003 T00320021
PAUT 231015Z AUTO 13022G30KT 7SM -RA BKN022 OVC027 03/02 A3033 RMK AO2 P0002 T00320020